createdAt,value
2023-05-15T00:00:44.544Z,3.25
2023-05-15T00:03:12.532Z,3.20
2023-05-15T00:05:40.155Z,3.53
2023-05-15T00:08:07.235Z,3.50
2023-05-15T00:10:34.391Z,3.40
2023-05-15T00:13:01.577Z,3.05
2023-05-15T00:15:28.968Z,3.20
2023-05-15T00:17:56.123Z,3.30
2023-05-15T00:20:23.122Z,3.28
2023-05-15T00:22:50.183Z,3.30
2023-05-15T00:25:19.519Z,3.03
2023-05-15T00:27:46.571Z,3.13
2023-05-15T00:30:14.279Z,3.70
2023-05-15T00:32:41.229Z,3.63
2023-05-15T00:35:08.226Z,3.90
2023-05-15T00:37:35.374Z,3.58
2023-05-15T00:40:04.932Z,3.83
2023-05-15T00:42:31.839Z,3.67
2023-05-15T00:44:59.148Z,3.53
2023-05-15T00:47:26.136Z,3.90
2023-05-15T00:49:53.410Z,3.75
2023-05-15T00:52:20.926Z,3.92
2023-05-15T00:54:48.619Z,3.90
2023-05-15T00:57:15.848Z,4.35
2023-05-15T00:59:42.758Z,3.70
2023-05-15T01:02:09.725Z,4.18
2023-05-15T01:04:39.297Z,3.95
2023-05-15T01:07:06.212Z,3.80
2023-05-15T01:09:33.198Z,3.97
2023-05-15T01:12:00.206Z,3.80
2023-05-15T01:14:27.517Z,3.75
2023-05-15T01:16:54.453Z,3.50
2023-05-15T01:19:21.590Z,3.50
2023-05-15T01:22:20.073Z,3.70
2023-05-15T01:25:10.238Z,3.60
2023-05-15T01:27:37.729Z,3.60
2023-05-15T01:30:08.287Z,3.63
2023-05-15T01:32:53.704Z,3.08
2023-05-15T01:35:29.760Z,2.60
2023-05-15T01:38:15.667Z,2.20
2023-05-15T01:40:42.600Z,2.22
2023-05-15T01:43:10.020Z,2.20
2023-05-15T01:45:37.485Z,2.38
2023-05-15T01:48:07.226Z,2.30
2023-05-15T01:50:34.980Z,2.05
2023-05-15T01:53:01.878Z,2.33
2023-05-15T01:55:28.901Z,2.42
2023-05-15T01:57:55.884Z,2.35
2023-05-15T02:00:22.856Z,2.30
2023-05-15T02:02:50.060Z,2.70
2023-05-15T02:05:19.010Z,2.45
2023-05-15T02:07:47.184Z,2.70
2023-05-15T02:10:15.273Z,2.60
2023-05-15T02:12:46.137Z,2.63
2023-05-15T02:15:13.212Z,2.53
2023-05-15T02:17:40.855Z,2.78
2023-05-15T02:20:08.912Z,2.42
2023-05-15T02:22:38.038Z,2.53
2023-05-15T02:25:05.434Z,2.70
2023-05-15T02:28:13.005Z,3.20
2023-05-15T02:30:56.452Z,2.67
2023-05-15T02:33:53.545Z,2.92
2023-05-15T02:36:21.268Z,2.63
2023-05-15T02:38:52.444Z,2.60
2023-05-15T02:41:19.767Z,2.85
2023-05-15T02:43:46.706Z,2.67
2023-05-15T02:46:14.697Z,3.22
2023-05-15T02:48:42.009Z,2.88
2023-05-15T02:51:08.941Z,3.03
2023-05-15T02:53:45.019Z,3.17
2023-05-15T02:56:12.255Z,2.80
2023-05-15T02:58:39.484Z,2.70
2023-05-15T03:01:06.998Z,3.13
2023-05-15T03:03:33.981Z,3.13
2023-05-15T03:06:01.550Z,3.30
2023-05-15T03:08:28.623Z,2.90
2023-05-15T03:10:55.676Z,3.03
2023-05-15T03:13:22.608Z,3.28
2023-05-15T03:15:49.631Z,3.45
2023-05-15T03:18:18.903Z,3.00
2023-05-15T03:20:47.397Z,3.40
2023-05-15T03:23:14.537Z,3.38
2023-05-15T03:25:41.590Z,3.55
2023-05-15T03:28:08.863Z,4.20
2023-05-15T03:30:35.825Z,4.20
2023-05-15T03:33:04.089Z,3.97
2023-05-15T03:35:32.522Z,4.00
2023-05-15T03:37:59.570Z,3.58
2023-05-15T03:40:26.589Z,3.83
2023-05-15T03:42:53.623Z,4.35
2023-05-15T03:45:21.485Z,4.60
2023-05-15T03:47:49.146Z,4.47
2023-05-15T03:50:16.296Z,4.97
2023-05-15T03:52:43.324Z,4.50
2023-05-15T03:55:10.533Z,4.85
2023-05-15T03:57:37.558Z,4.90
2023-05-15T04:00:10.235Z,5.10
2023-05-15T04:02:41.091Z,5.25
2023-05-15T04:05:08.957Z,4.70
2023-05-15T04:07:36.307Z,4.70
2023-05-15T04:10:03.537Z,5.50
2023-05-15T04:12:32.695Z,5.30
2023-05-15T04:15:00.340Z,5.50
2023-05-15T04:17:27.317Z,5.57
2023-05-15T04:19:54.294Z,5.60
2023-05-15T04:22:21.312Z,5.47
2023-05-15T04:24:48.286Z,5.70
2023-05-15T04:27:15.221Z,5.70
2023-05-15T04:29:42.151Z,5.60
2023-05-15T04:32:09.161Z,6.13
2023-05-15T04:34:36.846Z,6.10
2023-05-15T04:37:04.904Z,6.38
2023-05-15T04:39:31.967Z,6.38
2023-05-15T04:41:58.898Z,6.68
2023-05-15T04:44:25.840Z,6.40
2023-05-15T04:46:52.744Z,6.53
2023-05-15T04:49:19.625Z,6.30
2023-05-15T04:51:46.580Z,6.15
2023-05-15T04:54:13.637Z,6.45
2023-05-15T04:56:40.536Z,6.00
2023-05-15T04:59:07.541Z,6.22
2023-05-15T05:01:34.686Z,6.65
2023-05-15T05:04:01.676Z,5.45
2023-05-15T05:06:30.260Z,4.88
2023-05-15T05:08:58.057Z,4.82
2023-05-15T05:11:25.088Z,4.43
2023-05-15T05:13:52.109Z,5.05
2023-05-15T05:16:19.061Z,4.45
2023-05-15T05:18:46.109Z,4.47
2023-05-15T05:21:13.109Z,4.47
2023-05-15T05:23:40.396Z,4.07
2023-05-15T05:26:07.301Z,4.30
2023-05-15T05:28:34.302Z,3.72
2023-05-15T05:31:02.589Z,3.67
2023-05-15T05:33:29.778Z,3.30
2023-05-15T05:35:56.672Z,3.55
2023-05-15T05:38:23.673Z,3.30
2023-05-15T05:40:51.142Z,3.40
2023-05-15T05:43:18.048Z,3.20
2023-05-15T05:45:44.999Z,3.20
2023-05-15T05:48:13.486Z,3.50
2023-05-15T05:50:40.588Z,3.25
2023-05-15T05:53:07.577Z,3.25
2023-05-15T05:55:34.528Z,3.15
2023-05-15T05:58:06.498Z,3.40
2023-05-15T06:00:38.727Z,2.80
2023-05-15T06:03:05.772Z,2.90
2023-05-15T06:06:05.368Z,2.75
2023-05-15T06:10:31.455Z,2.90
2023-05-15T06:13:35.689Z,3.08
2023-05-15T06:16:38.722Z,3.20
2023-05-15T06:19:20.854Z,3.05
2023-05-15T06:22:33.788Z,3.00
2023-05-15T06:25:29.434Z,3.03
2023-05-15T06:28:43.616Z,2.97
2023-05-15T06:34:49.587Z,3.20
2023-05-15T06:37:29.084Z,2.90
2023-05-15T06:57:12.648Z,2.63
2023-05-15T07:01:25.379Z,2.60
2023-05-15T07:10:27.367Z,2.50
2023-05-15T07:16:42.542Z,1.95
2023-05-15T07:19:49.554Z,2.17
2023-05-15T07:22:57.291Z,1.88
2023-05-15T07:32:22.152Z,1.80
2023-05-15T07:35:30.065Z,1.80
2023-05-15T07:38:37.690Z,1.70
2023-05-15T07:42:02.174Z,1.60
2023-05-15T07:45:33.286Z,1.75
2023-05-15T07:52:00.121Z,1.75
2023-05-15T07:58:33.704Z,1.50
2023-05-15T08:02:15.684Z,1.60
2023-05-15T08:04:42.911Z,1.52
2023-05-15T08:07:09.982Z,1.45
2023-05-15T08:09:36.905Z,1.70
2023-05-15T08:12:17.754Z,1.63
2023-05-15T08:14:45.026Z,1.70
2023-05-15T08:17:12.274Z,1.42
2023-05-15T08:19:39.168Z,1.40
2023-05-15T08:22:06.074Z,1.50
2023-05-15T08:24:33.710Z,1.45
2023-05-15T08:27:00.674Z,1.52
2023-05-15T08:29:27.790Z,1.95
2023-05-15T08:31:54.711Z,1.63
2023-05-15T08:34:21.587Z,1.48
2023-05-15T08:36:48.612Z,1.60
2023-05-15T08:39:15.549Z,1.50
2023-05-15T08:41:51.605Z,1.35
2023-05-15T08:44:18.504Z,1.40
2023-05-15T08:46:45.920Z,1.40
2023-05-15T08:49:44.196Z,1.52
2023-05-15T08:52:11.212Z,1.30
2023-05-15T08:54:39.212Z,1.40
2023-05-15T08:57:07.224Z,1.35
2023-05-15T08:59:34.167Z,1.20
2023-05-15T09:02:01.362Z,1.30
2023-05-15T09:04:28.743Z,1.48
2023-05-15T09:06:56.225Z,1.40
2023-05-15T09:09:23.143Z,1.40
2023-05-15T09:11:50.071Z,1.30
2023-05-15T09:14:16.999Z,1.40
2023-05-15T09:16:44.544Z,1.60
2023-05-15T09:19:11.913Z,1.48
2023-05-15T09:21:38.902Z,1.40
2023-05-15T09:24:25.383Z,1.85
2023-05-15T09:27:06.402Z,1.40
2023-05-15T09:29:35.048Z,1.50
2023-05-15T09:32:12.100Z,1.90
2023-05-15T09:34:40.623Z,1.42
2023-05-15T09:37:09.204Z,1.17
2023-05-15T09:39:43.239Z,1.45
2023-05-15T09:42:12.118Z,1.50
2023-05-15T09:44:43.017Z,1.50
2023-05-15T09:47:11.697Z,1.55
2023-05-15T09:49:38.905Z,1.67
2023-05-15T09:52:09.845Z,1.55
2023-05-15T09:54:37.606Z,1.30
2023-05-15T09:57:12.130Z,1.58
2023-05-15T09:59:46.134Z,1.40
2023-05-15T10:02:32.388Z,1.55
2023-05-15T10:04:59.751Z,1.60
2023-05-15T10:07:34.109Z,1.30
2023-05-15T10:10:02.522Z,1.50
2023-05-15T10:12:30.028Z,1.42
2023-05-15T10:14:58.414Z,1.48
2023-05-15T10:17:27.511Z,1.67
2023-05-15T10:19:58.532Z,1.60
2023-05-15T10:22:27.946Z,1.50
2023-05-15T10:25:09.360Z,1.70
2023-05-15T10:27:37.441Z,1.58
2023-05-15T10:30:04.687Z,1.55
2023-05-15T10:32:31.754Z,1.90
2023-05-15T10:34:58.810Z,1.58
2023-05-15T10:37:25.856Z,1.88
2023-05-15T10:39:52.769Z,1.60
2023-05-15T10:42:19.757Z,1.40
2023-05-15T10:44:46.926Z,1.50
2023-05-15T10:47:14.009Z,1.50
2023-05-15T10:49:41.171Z,1.63
2023-05-15T10:52:08.195Z,1.70
2023-05-15T10:54:35.623Z,1.80
2023-05-15T10:57:02.935Z,1.90
2023-05-15T10:59:34.170Z,1.90
2023-05-15T11:02:23.441Z,1.83
2023-05-15T11:05:01.435Z,1.77
2023-05-15T11:07:28.467Z,1.90
2023-05-15T11:09:56.392Z,1.80
2023-05-15T11:12:23.902Z,1.95
2023-05-15T11:14:57.096Z,1.67
2023-05-15T11:17:24.495Z,1.65
2023-05-15T11:19:51.649Z,1.85
2023-05-15T11:22:26.970Z,2.10
2023-05-15T11:24:54.943Z,1.65
2023-05-15T11:27:24.003Z,1.77
2023-05-15T11:30:08.193Z,2.00
2023-05-15T11:32:47.575Z,1.60
2023-05-15T11:35:24.798Z,1.75
2023-05-15T11:37:54.245Z,1.40
2023-05-15T11:40:28.895Z,1.60
2023-05-15T11:43:08.644Z,1.30
2023-05-15T11:45:39.651Z,1.98
2023-05-15T11:48:07.761Z,1.25
2023-05-15T11:50:35.516Z,1.48
2023-05-15T11:53:04.587Z,1.58
2023-05-15T11:55:32.692Z,1.50
2023-05-15T11:58:00.572Z,1.63
2023-05-15T12:00:27.900Z,1.55
2023-05-15T12:02:55.217Z,1.75
2023-05-15T12:05:22.831Z,1.60
2023-05-15T12:07:50.216Z,1.58
2023-05-15T12:10:17.303Z,1.52
2023-05-15T12:12:44.727Z,1.50
2023-05-15T12:15:12.467Z,1.73
2023-05-15T12:17:42.507Z,1.48
2023-05-15T12:20:27.936Z,1.40
2023-05-15T12:22:54.994Z,1.40
2023-05-15T12:25:22.121Z,1.40
2023-05-15T12:27:49.112Z,1.55
2023-05-15T12:30:16.211Z,1.70
2023-05-15T12:32:43.843Z,1.55
2023-05-15T12:35:12.281Z,1.58
2023-05-15T12:37:39.215Z,1.50
2023-05-15T12:40:11.909Z,1.52
2023-05-15T12:42:53.441Z,1.70
2023-05-15T12:45:21.012Z,1.50
2023-05-15T12:47:48.976Z,1.60
2023-05-15T12:50:20.680Z,1.50
2023-05-15T12:52:53.098Z,1.60
2023-05-15T12:55:27.712Z,1.70
2023-05-15T12:57:58.564Z,1.50
2023-05-15T13:00:26.176Z,1.67
2023-05-15T13:02:54.364Z,1.60
2023-05-15T13:05:23.409Z,1.50
2023-05-15T13:07:52.111Z,1.70
2023-05-15T13:10:24.042Z,1.35
2023-05-15T13:12:52.681Z,1.35
2023-05-15T13:15:31.764Z,1.60
2023-05-15T13:18:09.367Z,1.40
2023-05-15T13:20:40.803Z,2.10
2023-05-15T13:23:08.269Z,1.60
2023-05-15T13:25:35.982Z,1.67
2023-05-15T13:28:04.043Z,1.63
2023-05-15T13:30:31.168Z,1.50
2023-05-15T13:32:58.195Z,1.58
2023-05-15T13:35:25.237Z,1.50
2023-05-15T13:37:52.212Z,1.35
2023-05-15T13:40:26.219Z,1.60
2023-05-15T13:42:53.771Z,2.00
2023-05-15T13:45:20.870Z,1.70
2023-05-15T13:47:47.846Z,1.40
2023-05-15T13:50:15.448Z,1.67
2023-05-15T13:52:43.055Z,1.77
2023-05-15T13:55:10.499Z,1.67
2023-05-15T13:57:38.756Z,1.58
2023-05-15T14:00:07.855Z,1.80
2023-05-15T14:02:34.933Z,1.73
2023-05-15T14:05:02.009Z,1.55
2023-05-15T14:07:29.173Z,1.63
2023-05-15T14:09:56.369Z,1.35
2023-05-15T14:12:23.352Z,1.40
2023-05-15T14:14:50.465Z,1.75
2023-05-15T14:17:18.658Z,1.70
2023-05-15T14:19:46.209Z,1.70
2023-05-15T14:22:13.144Z,1.88
2023-05-15T14:24:40.231Z,1.80
2023-05-15T14:27:10.290Z,1.65
2023-05-15T14:29:39.102Z,1.70
2023-05-15T14:32:07.393Z,1.63
2023-05-15T14:34:34.520Z,2.05
2023-05-15T14:37:01.613Z,1.77
2023-05-15T14:39:29.008Z,1.65
2023-05-15T14:41:55.961Z,1.63
2023-05-15T14:44:23.363Z,1.50
2023-05-15T14:47:00.888Z,1.67
2023-05-15T14:49:27.988Z,1.55
2023-05-15T14:51:54.908Z,1.52
2023-05-15T14:54:22.188Z,1.75
2023-05-15T14:56:49.250Z,1.63
2023-05-15T14:59:16.193Z,1.80
2023-05-15T15:01:43.224Z,1.73
2023-05-15T15:04:10.336Z,1.60
2023-05-15T15:06:37.839Z,1.60
2023-05-15T15:09:04.868Z,1.85
2023-05-15T15:11:31.850Z,1.60
2023-05-15T15:13:58.802Z,1.55
2023-05-15T15:16:25.902Z,1.58
2023-05-15T15:18:53.097Z,1.70
2023-05-15T15:21:20.202Z,1.70
2023-05-15T15:23:48.329Z,1.83
2023-05-15T15:26:15.930Z,1.60
2023-05-15T15:28:43.082Z,1.88
2023-05-15T15:31:10.786Z,2.03
2023-05-15T15:33:38.086Z,1.90
2023-05-15T15:36:05.457Z,1.63
2023-05-15T15:38:32.553Z,1.83
2023-05-15T15:40:59.508Z,2.00
2023-05-15T15:43:26.546Z,2.17
2023-05-15T15:45:54.597Z,1.90
2023-05-15T15:48:21.629Z,2.10
2023-05-15T15:50:48.929Z,1.90
2023-05-15T15:53:16.258Z,1.90
2023-05-15T15:55:45.161Z,2.20
2023-05-15T15:58:14.639Z,2.30
2023-05-15T16:00:43.382Z,2.50
2023-05-15T16:03:10.922Z,2.03
2023-05-15T16:05:37.925Z,1.85
2023-05-15T16:08:05.786Z,1.90
2023-05-15T16:10:33.281Z,1.92
2023-05-15T16:13:00.675Z,2.03
2023-05-15T16:15:27.702Z,1.92
2023-05-15T16:17:55.286Z,2.05
2023-05-15T16:20:23.205Z,2.10
2023-05-15T16:22:50.246Z,2.00
2023-05-15T16:25:17.208Z,2.13
2023-05-15T16:27:44.273Z,2.10
2023-05-15T16:30:11.798Z,1.90
2023-05-15T16:32:39.045Z,1.90
2023-05-15T16:35:06.503Z,2.22
2023-05-15T16:37:34.103Z,2.30
2023-05-15T16:40:01.071Z,2.22
2023-05-15T16:42:28.546Z,2.17
2023-05-15T16:44:55.801Z,2.10
2023-05-15T16:47:22.752Z,2.42
2023-05-15T16:49:50.622Z,2.20
2023-05-15T16:52:17.659Z,2.10
2023-05-15T16:54:45.005Z,2.28
2023-05-15T16:57:11.942Z,2.28
2023-05-15T16:59:39.031Z,2.42
2023-05-15T17:02:06.066Z,2.08
2023-05-15T17:04:35.190Z,2.40
2023-05-15T17:07:02.141Z,2.28
2023-05-15T17:09:29.112Z,2.03
2023-05-15T17:11:56.076Z,1.90
2023-05-15T17:14:22.994Z,2.10
2023-05-15T17:16:49.942Z,2.00
2023-05-15T17:19:17.208Z,2.00
2023-05-15T17:21:45.566Z,2.28
2023-05-15T17:24:15.902Z,2.10
2023-05-15T17:26:42.904Z,2.10
2023-05-15T17:29:11.016Z,2.20
2023-05-15T17:31:39.029Z,2.17
2023-05-15T17:34:06.301Z,2.17
2023-05-15T17:36:33.834Z,3.17
2023-05-15T17:39:01.310Z,2.72
2023-05-15T17:41:28.577Z,2.28
2023-05-15T17:43:55.822Z,2.20
2023-05-15T17:46:22.778Z,2.30
2023-05-15T17:48:49.720Z,1.80
2023-05-15T17:51:16.762Z,1.90
2023-05-15T17:53:43.702Z,2.10
2023-05-15T17:56:10.822Z,2.15
2023-05-15T17:58:38.020Z,2.15
2023-05-15T18:01:05.207Z,1.90
2023-05-15T18:03:34.026Z,2.10
2023-05-15T18:06:01.198Z,2.03
2023-05-15T18:08:28.159Z,1.98
2023-05-15T18:10:55.270Z,1.85
2023-05-15T18:13:22.186Z,2.03
2023-05-15T18:15:49.305Z,2.40
2023-05-15T18:18:16.838Z,2.03
2023-05-15T18:20:43.844Z,2.00
2023-05-15T18:23:11.157Z,2.10
2023-05-15T18:25:38.140Z,2.00
2023-05-15T18:28:05.272Z,1.92
2023-05-15T18:30:32.222Z,2.20
2023-05-15T18:32:59.167Z,1.80
2023-05-15T18:35:27.008Z,1.80
2023-05-15T18:37:54.609Z,1.73
2023-05-15T18:40:21.649Z,1.85
2023-05-15T18:42:49.318Z,2.25
2023-05-15T18:45:16.527Z,2.10
2023-05-15T18:47:43.565Z,2.03
2023-05-15T18:50:11.081Z,2.22
2023-05-15T18:52:41.477Z,1.90
2023-05-15T18:55:09.876Z,1.73
2023-05-15T18:57:36.934Z,2.22
2023-05-15T19:00:05.318Z,2.20
2023-05-15T19:02:35.059Z,1.77
2023-05-15T19:05:02.679Z,1.80
2023-05-15T19:07:29.766Z,2.03
2023-05-15T19:09:59.509Z,2.10
2023-05-15T19:12:26.980Z,2.28
2023-05-15T19:14:54.057Z,2.10
2023-05-15T19:17:21.581Z,2.10
2023-05-15T19:19:48.590Z,2.00
2023-05-15T19:22:15.552Z,2.10
2023-05-15T19:24:42.478Z,2.00
2023-05-15T19:27:09.440Z,2.08
2023-05-15T19:29:36.693Z,1.92
2023-05-15T19:32:04.071Z,1.95
2023-05-15T19:34:31.122Z,2.13
2023-05-15T19:36:58.098Z,2.17
2023-05-15T19:39:25.232Z,2.10
2023-05-15T19:41:52.299Z,1.90
2023-05-15T19:44:19.307Z,2.15
2023-05-15T19:46:46.751Z,2.28
2023-05-15T19:49:13.763Z,1.90
2023-05-15T19:51:41.411Z,1.92
2023-05-15T19:54:09.415Z,2.10
2023-05-15T19:56:36.539Z,2.53
2023-05-15T19:59:03.516Z,2.00
2023-05-15T20:01:31.153Z,2.25
2023-05-15T20:03:58.368Z,2.10
2023-05-15T20:06:26.153Z,2.50
2023-05-15T20:08:53.079Z,2.10
2023-05-15T20:11:20.005Z,2.30
2023-05-15T20:13:46.981Z,2.17
2023-05-15T20:16:14.132Z,2.25
2023-05-15T20:18:41.728Z,2.38
2023-05-15T20:21:08.726Z,2.65
2023-05-15T20:23:35.738Z,2.10
2023-05-15T20:26:03.468Z,2.20
2023-05-15T20:28:30.663Z,2.60
2023-05-15T20:30:57.735Z,2.55
2023-05-15T20:33:25.345Z,2.53
2023-05-15T20:35:52.578Z,2.70
2023-05-15T20:38:21.760Z,2.50
2023-05-15T20:40:49.025Z,2.55
2023-05-15T20:43:15.954Z,2.70
2023-05-15T20:45:42.911Z,3.13
2023-05-15T20:48:11.276Z,2.63
2023-05-15T20:50:38.434Z,2.60
2023-05-15T20:53:05.470Z,3.28
2023-05-15T20:55:32.591Z,2.88
2023-05-15T20:57:59.666Z,2.72
2023-05-15T21:00:26.809Z,2.75
2023-05-15T21:02:54.363Z,2.70
2023-05-15T21:05:21.495Z,2.90
2023-05-15T21:07:48.586Z,2.95
2023-05-15T21:10:15.833Z,3.15
2023-05-15T21:12:42.820Z,2.80
2023-05-15T21:15:10.184Z,3.38
2023-05-15T21:17:37.134Z,3.13
2023-05-15T21:20:05.014Z,3.13
2023-05-15T21:22:32.128Z,3.30
2023-05-15T21:24:59.121Z,3.50
2023-05-15T21:27:26.021Z,3.10
2023-05-15T21:29:53.176Z,3.30
2023-05-15T21:32:20.338Z,3.17
2023-05-15T21:34:47.359Z,3.42
2023-05-15T21:37:14.290Z,3.42
2023-05-15T21:39:43.619Z,3.13
2023-05-15T21:42:10.735Z,3.10
2023-05-15T21:44:37.940Z,3.28
2023-05-15T21:47:05.133Z,3.50
2023-05-15T21:49:32.089Z,3.50
2023-05-15T21:51:59.186Z,3.65
2023-05-15T21:54:26.129Z,3.45
2023-05-15T21:56:53.114Z,3.35
2023-05-15T21:59:20.217Z,3.30
2023-05-15T22:01:48.460Z,3.72
2023-05-15T22:04:15.588Z,3.47
2023-05-15T22:06:44.839Z,3.38
2023-05-15T22:09:12.083Z,3.38
2023-05-15T22:11:39.317Z,3.53
2023-05-15T22:14:06.567Z,3.30
2023-05-15T22:16:34.519Z,3.25
2023-05-15T22:19:02.167Z,3.60
2023-05-15T22:21:29.390Z,3.58
2023-05-15T22:23:56.326Z,3.80
2023-05-15T22:26:23.396Z,3.88
2023-05-15T22:28:56.414Z,3.60
2023-05-15T22:31:23.500Z,4.00
2023-05-15T22:33:50.524Z,4.03
2023-05-15T22:36:17.799Z,4.13
2023-05-15T22:38:44.797Z,3.97
2023-05-15T22:41:11.834Z,3.97
2023-05-15T22:43:41.635Z,4.00
2023-05-15T22:46:27.189Z,3.88
2023-05-15T22:49:19.449Z,4.03
2023-05-15T22:51:57.642Z,3.78
2023-05-15T22:54:35.450Z,4.18
2023-05-15T22:57:10.775Z,3.88
2023-05-15T22:59:53.629Z,3.80
2023-05-15T23:02:49.221Z,3.45
2023-05-15T23:05:37.344Z,3.72
2023-05-15T23:08:20.139Z,3.80
2023-05-15T23:11:10.921Z,4.13
2023-05-15T23:14:02.631Z,4.10
2023-05-15T23:17:08.300Z,3.70
2023-05-15T23:19:56.930Z,3.95
2023-05-15T23:22:49.256Z,4.43
2023-05-15T23:29:00.236Z,3.90
2023-05-15T23:31:55.648Z,4.30
2023-05-15T23:34:46.414Z,4.05
2023-05-15T23:38:06.029Z,4.25
2023-05-15T23:40:53.025Z,4.15
2023-05-15T23:46:22.759Z,3.78
2023-05-15T23:49:06.882Z,3.67
2023-05-15T23:52:07.959Z,4.03
2023-05-15T23:57:54.033Z,4.10
